createdAt,value
2023-04-18T00:00:10.544Z,100194.09
2023-04-18T00:03:18.346Z,100192.56
2023-04-18T00:06:22.338Z,100184.66
2023-04-18T00:09:25.961Z,100189.41
2023-04-18T00:12:29.129Z,100184.72
2023-04-18T00:15:32.509Z,100188.38
2023-04-18T00:18:37.108Z,100193.16
2023-04-18T00:21:44.983Z,100198.53
2023-04-18T00:24:52.263Z,100196.91
2023-04-18T00:27:55.627Z,100190.00
2023-04-18T00:31:00.671Z,100192.22
2023-04-18T00:34:04.124Z,100189.50
2023-04-18T00:37:08.024Z,100200.03
2023-04-18T00:40:11.817Z,100194.53
2023-04-18T00:43:17.178Z,100197.31
2023-04-18T00:46:20.390Z,100199.69
2023-04-18T00:49:24.772Z,100198.53
2023-04-18T00:52:28.398Z,100199.28
2023-04-18T00:55:31.914Z,100205.97
2023-04-18T00:58:36.022Z,100208.44
2023-04-18T01:01:43.832Z,100209.31
2023-04-18T01:04:48.282Z,100202.59
2023-04-18T01:07:55.123Z,100207.19
2023-04-18T01:10:58.457Z,100211.22
2023-04-18T01:14:07.126Z,100209.34
2023-04-18T01:17:13.490Z,100201.91
2023-04-18T01:20:16.999Z,100201.59
2023-04-18T01:23:21.327Z,100194.97
2023-04-18T01:26:24.615Z,100201.81
2023-04-18T01:29:27.917Z,100199.53
2023-04-18T01:32:32.988Z,100193.25
2023-04-18T01:35:36.405Z,100205.03
2023-04-18T01:38:39.449Z,100202.25
2023-04-18T01:41:42.444Z,100200.38
2023-04-18T01:44:46.047Z,100200.78
2023-04-18T01:47:49.236Z,100198.56
2023-04-18T01:50:52.438Z,100199.59
2023-04-18T01:53:55.641Z,100200.72
2023-04-18T01:56:59.114Z,100208.19
2023-04-18T02:00:02.521Z,100197.38
2023-04-18T02:03:06.241Z,100208.59
2023-04-18T02:06:10.301Z,100208.88
2023-04-18T02:09:13.391Z,100215.19
2023-04-18T02:12:18.836Z,100224.25
2023-04-18T02:15:24.510Z,100218.75
2023-04-18T02:18:28.086Z,100214.56
2023-04-18T02:21:31.345Z,100216.25
2023-04-18T02:24:34.291Z,100222.09
2023-04-18T02:27:37.309Z,100218.19
2023-04-18T02:30:40.695Z,100211.53
2023-04-18T02:33:45.803Z,100212.38
2023-04-18T02:36:50.117Z,100215.09
2023-04-18T02:39:53.971Z,100219.03
2023-04-18T02:42:57.084Z,100227.13
2023-04-18T02:46:00.385Z,100225.94
2023-04-18T02:49:04.128Z,100224.16
2023-04-18T02:52:07.945Z,100226.06
2023-04-18T02:55:11.215Z,100222.84
2023-04-18T02:58:17.889Z,100232.56
2023-04-18T03:01:31.105Z,100225.88
2023-04-18T03:04:49.540Z,100222.38
2023-04-18T03:07:52.925Z,100225.50
2023-04-18T03:10:56.775Z,100231.72
2023-04-18T03:14:01.792Z,100232.56
2023-04-18T03:17:12.773Z,100233.94
2023-04-18T03:20:19.234Z,100234.88
2023-04-18T03:23:22.584Z,100236.53
2023-04-18T03:26:25.969Z,100230.31
2023-04-18T03:29:30.324Z,100246.44
2023-04-18T03:32:34.110Z,100240.28
2023-04-18T03:35:37.452Z,100241.41
2023-04-18T03:38:42.152Z,100246.22
2023-04-18T03:41:45.605Z,100242.69
2023-04-18T03:44:49.003Z,100246.78
2023-04-18T03:47:52.269Z,100248.44
2023-04-18T03:50:56.592Z,100247.59
2023-04-18T03:54:00.009Z,100247.81
2023-04-18T03:57:03.456Z,100245.03
2023-04-18T04:00:08.886Z,100252.00
2023-04-18T04:03:19.724Z,100250.94
2023-04-18T04:06:22.952Z,100257.16
2023-04-18T04:09:26.547Z,100261.00
2023-04-18T04:12:30.124Z,100260.25
2023-04-18T04:15:38.355Z,100267.16
2023-04-18T04:18:43.748Z,100267.91
2023-04-18T04:21:48.097Z,100270.91
2023-04-18T04:24:53.238Z,100265.06
2023-04-18T04:28:03.480Z,100268.63
2023-04-18T04:31:12.332Z,100269.47
2023-04-18T04:34:17.014Z,100271.41
2023-04-18T04:37:20.546Z,100270.28
2023-04-18T04:40:35.908Z,100278.78
2023-04-18T04:43:48.020Z,100280.41
2023-04-18T04:46:55.174Z,100276.38
2023-04-18T04:50:04.398Z,100282.50
2023-04-18T04:53:08.897Z,100280.13
2023-04-18T04:56:12.946Z,100285.41
2023-04-18T04:59:16.578Z,100293.38
2023-04-18T05:02:23.674Z,100294.91
2023-04-18T05:05:26.964Z,100293.25
2023-04-18T05:08:30.312Z,100297.09
2023-04-18T05:11:33.229Z,100303.22
2023-04-18T05:14:36.040Z,100304.00
2023-04-18T05:17:39.256Z,100304.47
2023-04-18T05:20:42.568Z,100305.59
2023-04-18T05:23:46.607Z,100319.13
2023-04-18T05:26:49.769Z,100318.03
2023-04-18T05:29:52.874Z,100322.19
2023-04-18T05:32:56.021Z,100320.31
2023-04-18T05:35:59.704Z,100331.41
2023-04-18T05:39:02.852Z,100329.94
2023-04-18T05:42:06.501Z,100339.94
2023-04-18T05:45:10.059Z,100342.25
2023-04-18T05:48:14.223Z,100333.88
2023-04-18T05:51:18.101Z,100340.84
2023-04-18T05:54:25.506Z,100343.91
2023-04-18T05:57:32.046Z,100342.88
2023-04-18T06:00:42.580Z,100347.91
2023-04-18T06:03:46.366Z,100347.28
2023-04-18T06:06:49.609Z,100350.75
2023-04-18T06:09:54.388Z,100346.84
2023-04-18T06:12:58.206Z,100344.75
2023-04-18T06:16:01.735Z,100347.00
2023-04-18T06:19:05.516Z,100352.56
2023-04-18T06:22:09.186Z,100352.97
2023-04-18T06:25:12.671Z,100357.88
2023-04-18T06:28:16.280Z,100359.47
2023-04-18T06:31:20.055Z,100359.41
2023-04-18T06:34:23.356Z,100360.25
2023-04-18T06:37:26.407Z,100357.84
2023-04-18T06:40:29.760Z,100361.81
2023-04-18T06:43:33.222Z,100358.72
2023-04-18T06:46:37.229Z,100367.06
2023-04-18T06:49:41.683Z,100357.66
2023-04-18T06:52:45.950Z,100358.56
2023-04-18T06:55:49.814Z,100355.06
2023-04-18T06:58:53.677Z,100358.31
2023-04-18T07:01:57.146Z,100361.97
2023-04-18T07:05:03.143Z,100363.91
2023-04-18T07:08:07.024Z,100360.63
2023-04-18T07:11:11.812Z,100366.38
2023-04-18T07:14:15.731Z,100357.84
2023-04-18T07:17:19.258Z,100366.63
2023-04-18T07:20:22.991Z,100365.41
2023-04-18T07:23:26.884Z,100372.72
2023-04-18T07:26:30.558Z,100368.88
2023-04-18T07:29:33.999Z,100363.59
2023-04-18T07:32:37.540Z,100372.78
2023-04-18T07:35:41.609Z,100374.75
2023-04-18T07:38:45.183Z,100378.28
2023-04-18T07:41:48.619Z,100378.28
2023-04-18T07:44:58.549Z,100381.25
2023-04-18T07:48:02.763Z,100387.13
2023-04-18T07:51:05.932Z,100391.00
2023-04-18T07:54:11.196Z,100399.41
2023-04-18T07:57:19.391Z,100398.06
2023-04-18T08:00:22.899Z,100393.72
2023-04-18T08:03:27.975Z,100402.19
2023-04-18T08:06:31.531Z,100403.28
2023-04-18T08:09:35.103Z,100406.09
2023-04-18T08:12:39.197Z,100404.78
2023-04-18T08:15:42.826Z,100404.13
2023-04-18T08:18:46.092Z,100411.69
2023-04-18T08:21:51.869Z,100419.41
2023-04-18T08:25:04.221Z,100425.50
2023-04-18T08:28:08.691Z,100423.00
2023-04-18T08:31:13.824Z,100428.31
2023-04-18T08:34:19.469Z,100436.31
2023-04-18T08:37:22.746Z,100436.41
2023-04-18T08:40:26.365Z,100433.75
2023-04-18T08:43:31.431Z,100438.59
2023-04-18T08:46:38.394Z,100436.22
2023-04-18T08:49:42.855Z,100444.94
2023-04-18T08:52:49.752Z,100448.44
2023-04-18T08:55:57.536Z,100452.16
2023-04-18T08:59:00.854Z,100447.69
2023-04-18T09:02:06.927Z,100451.28
2023-04-18T09:05:21.406Z,100448.19
2023-04-18T09:08:24.916Z,100453.16
2023-04-18T09:11:30.200Z,100455.19
2023-04-18T09:14:36.694Z,100457.94
2023-04-18T09:17:51.398Z,100458.72
2023-04-18T09:20:55.300Z,100464.06
2023-04-18T09:24:28.586Z,100468.50
2023-04-18T09:27:35.262Z,100471.91
2023-04-18T09:30:41.177Z,100465.84
2023-04-18T09:34:20.412Z,100466.09
2023-04-18T09:37:26.757Z,100462.47
2023-04-18T09:40:31.273Z,100462.22
2023-04-18T09:43:35.311Z,100463.31
2023-04-18T09:46:38.991Z,100465.88
2023-04-18T09:49:42.644Z,100463.66
2023-04-18T09:52:47.755Z,100459.63
2023-04-18T09:55:57.726Z,100461.97
2023-04-18T09:59:10.111Z,100461.00
2023-04-18T10:02:19.921Z,100459.56
2023-04-18T10:05:31.141Z,100460.09
2023-04-18T10:08:34.801Z,100452.75
2023-04-18T10:11:38.619Z,100452.09
2023-04-18T10:14:43.463Z,100454.09
2023-04-18T10:18:03.566Z,100452.75
2023-04-18T10:21:09.638Z,100452.00
2023-04-18T10:24:50.574Z,100458.25
2023-04-18T10:28:01.975Z,100463.06
2023-04-18T10:31:05.904Z,100453.44
2023-04-18T10:34:11.286Z,100449.25
2023-04-18T10:37:15.859Z,100451.84
2023-04-18T10:40:34.253Z,100450.59
2023-04-18T10:44:15.921Z,100439.59
2023-04-18T10:56:34.058Z,100442.16
2023-04-18T11:12:05.485Z,100435.53
2023-04-18T11:15:14.597Z,100436.69
2023-04-18T11:18:17.712Z,100434.41
2023-04-18T11:21:21.055Z,100428.13
2023-04-18T11:24:24.716Z,100427.69
2023-04-18T11:27:29.954Z,100426.72
2023-04-18T11:30:51.696Z,100429.78
2023-04-18T11:33:59.234Z,100432.31
2023-04-18T11:37:10.154Z,100418.97
2023-04-18T11:40:17.423Z,100423.22
2023-04-18T11:43:23.121Z,100423.56
2023-04-18T11:46:38.399Z,100414.09
2023-04-18T11:49:42.331Z,100419.25
2023-04-18T11:52:50.585Z,100416.94
2023-04-18T11:55:56.687Z,100422.72
2023-04-18T11:58:59.789Z,100419.44
2023-04-18T12:02:15.464Z,100421.28
2023-04-18T12:05:26.771Z,100410.94
2023-04-18T12:08:32.062Z,100416.78
2023-04-18T12:11:35.050Z,100418.13
2023-04-18T12:14:38.484Z,100407.50
2023-04-18T12:17:44.566Z,100407.69
2023-04-18T12:20:55.403Z,100392.66
2023-04-18T12:23:59.845Z,100407.22
2023-04-18T12:27:03.532Z,100412.06
2023-04-18T12:30:14.891Z,100411.97
2023-04-18T12:33:17.964Z,100411.47
2023-04-18T12:36:23.515Z,100403.88
2023-04-18T12:39:26.363Z,100401.47
2023-04-18T12:42:29.045Z,100404.22
2023-04-18T12:45:32.586Z,100410.75
2023-04-18T12:48:35.944Z,100400.25
2023-04-18T12:51:39.886Z,100402.03
2023-04-18T12:54:42.697Z,100399.72
2023-04-18T12:57:45.560Z,100404.84
2023-04-18T13:00:48.656Z,100399.69
2023-04-18T13:04:00.265Z,100397.97
2023-04-18T13:07:12.376Z,100401.41
2023-04-18T13:10:18.482Z,100391.41
2023-04-18T13:13:21.735Z,100396.50
2023-04-18T13:16:24.752Z,100394.75
2023-04-18T13:19:27.656Z,100393.06
2023-04-18T13:22:31.592Z,100395.31
2023-04-18T13:25:34.427Z,100390.31
2023-04-18T13:28:37.499Z,100390.78
2023-04-18T13:31:40.736Z,100397.53
2023-04-18T13:34:46.191Z,100398.72
2023-04-18T13:37:49.221Z,100388.41
2023-04-18T13:41:01.243Z,100386.91
2023-04-18T13:44:11.780Z,100388.09
2023-04-18T13:47:15.206Z,100377.81
2023-04-18T13:50:18.500Z,100386.72
2023-04-18T13:53:21.758Z,100385.22
2023-04-18T13:56:26.024Z,100384.88
2023-04-18T13:59:31.609Z,100389.91
2023-04-18T14:02:34.971Z,100392.03
2023-04-18T14:05:38.321Z,100384.47
2023-04-18T14:08:41.226Z,100380.50
2023-04-18T14:11:45.281Z,100394.16
2023-04-18T14:14:48.559Z,100389.09
2023-04-18T14:17:51.756Z,100393.69
2023-04-18T14:20:54.979Z,100392.06
2023-04-18T14:23:57.913Z,100380.53
2023-04-18T14:27:01.878Z,100389.88
2023-04-18T14:30:08.577Z,100396.88
2023-04-18T14:33:11.820Z,100395.63
2023-04-18T14:36:15.428Z,100389.19
2023-04-18T14:39:18.523Z,100389.47
2023-04-18T14:42:22.032Z,100392.38
2023-04-18T14:45:25.004Z,100393.69
2023-04-18T14:48:28.351Z,100397.19
2023-04-18T14:51:31.326Z,100393.53
2023-04-18T14:54:34.782Z,100398.13
2023-04-18T14:57:39.106Z,100387.19
2023-04-18T15:00:42.702Z,100391.53
2023-04-18T15:03:46.133Z,100382.94
2023-04-18T15:06:49.822Z,100386.56
2023-04-18T15:09:52.974Z,100391.41
2023-04-18T15:12:55.969Z,100388.66
2023-04-18T15:16:02.119Z,100387.31
2023-04-18T15:19:05.397Z,100388.13
2023-04-18T15:22:09.130Z,100394.22
2023-04-18T15:25:16.490Z,100390.06
2023-04-18T15:28:19.935Z,100396.44
2023-04-18T15:31:23.577Z,100393.81
2023-04-18T15:34:27.037Z,100392.47
2023-04-18T15:37:30.028Z,100395.66
2023-04-18T15:40:33.279Z,100400.81
2023-04-18T15:43:36.338Z,100405.38
2023-04-18T15:46:39.826Z,100410.31
2023-04-18T15:49:43.069Z,100409.53
2023-04-18T15:52:46.316Z,100414.19
2023-04-18T15:55:49.496Z,100404.34
2023-04-18T15:58:52.992Z,100416.63
2023-04-18T16:01:56.468Z,100414.81
2023-04-18T16:04:59.506Z,100418.88
2023-04-18T16:08:02.838Z,100418.84
2023-04-18T16:11:06.708Z,100430.72
2023-04-18T16:14:09.697Z,100436.88
2023-04-18T16:17:12.804Z,100449.84
2023-04-18T16:20:15.831Z,100437.03
2023-04-18T16:23:20.677Z,100428.69
2023-04-18T16:26:25.009Z,100417.44
2023-04-18T16:29:28.366Z,100408.88
2023-04-18T16:32:31.638Z,100403.69
2023-04-18T16:35:34.950Z,100396.69
2023-04-18T16:38:38.278Z,100402.03
2023-04-18T16:41:41.683Z,100420.03
2023-04-18T16:44:45.552Z,100420.59
2023-04-18T16:47:48.453Z,100414.97
2023-04-18T16:50:51.304Z,100414.56
2023-04-18T16:53:55.360Z,100416.72
2023-04-18T16:56:58.643Z,100425.38
2023-04-18T17:00:02.894Z,100414.28
2023-04-18T17:03:10.113Z,100418.47
2023-04-18T17:06:13.242Z,100423.31
2023-04-18T17:09:16.837Z,100435.84
2023-04-18T17:12:19.910Z,100420.84
2023-04-18T17:15:23.096Z,100429.25
2023-04-18T17:18:26.296Z,100432.13
2023-04-18T17:21:29.855Z,100436.09
2023-04-18T17:24:33.354Z,100433.16
2023-04-18T17:27:36.365Z,100437.03
2023-04-18T17:30:42.656Z,100433.75
2023-04-18T17:33:45.961Z,100442.81
2023-04-18T17:36:50.676Z,100451.81
2023-04-18T17:39:57.325Z,100448.34
2023-04-18T17:43:00.358Z,100458.66
2023-04-18T17:46:03.882Z,100454.97
2023-04-18T17:49:07.804Z,100459.31
2023-04-18T17:52:11.042Z,100465.53
2023-04-18T17:55:14.877Z,100473.75
2023-04-18T17:58:21.608Z,100476.06
2023-04-18T18:01:26.336Z,100478.72
2023-04-18T18:04:30.043Z,100486.47
2023-04-18T18:07:37.351Z,100481.25
2023-04-18T18:10:49.950Z,100481.31
2023-04-18T18:13:55.634Z,100490.78
2023-04-18T18:16:58.774Z,100485.75
2023-04-18T18:20:01.919Z,100497.28
2023-04-18T18:23:04.875Z,100499.72
2023-04-18T18:26:09.748Z,100495.81
2023-04-18T18:29:12.997Z,100503.88
2023-04-18T18:32:16.934Z,100503.16
2023-04-18T18:35:20.167Z,100498.50
2023-04-18T18:38:23.581Z,100506.09
2023-04-18T18:41:27.169Z,100510.44
2023-04-18T18:44:30.779Z,100527.34
2023-04-18T18:47:35.170Z,100551.66
2023-04-18T18:50:41.487Z,100573.50
2023-04-18T18:53:46.674Z,100580.19
2023-04-18T18:56:50.218Z,100577.97
2023-04-18T18:59:55.702Z,100576.44
2023-04-18T19:02:59.246Z,100570.59
2023-04-18T19:06:04.296Z,100573.44
2023-04-18T19:09:07.412Z,100572.66
2023-04-18T19:12:10.756Z,100577.09
2023-04-18T19:15:13.982Z,100570.72
2023-04-18T19:18:20.266Z,100568.53
2023-04-18T19:21:23.362Z,100573.03
2023-04-18T19:24:26.276Z,100560.97
2023-04-18T19:27:29.312Z,100560.25
2023-04-18T19:30:32.951Z,100544.28
2023-04-18T19:33:38.438Z,100545.06
2023-04-18T19:36:42.087Z,100547.41
2023-04-18T19:39:45.020Z,100563.25
2023-04-18T19:42:48.409Z,100554.16
2023-04-18T19:45:53.212Z,100550.50
2023-04-18T19:48:58.536Z,100553.91
2023-04-18T19:52:01.671Z,100542.69
2023-04-18T19:55:05.497Z,100525.22
2023-04-18T19:58:08.818Z,100526.78
2023-04-18T20:01:13.644Z,100523.41
2023-04-18T20:04:17.551Z,100513.34
2023-04-18T20:07:21.019Z,100512.66
2023-04-18T20:10:24.161Z,100501.66
2023-04-18T20:13:27.694Z,100501.25
2023-04-18T20:16:31.737Z,100494.97
2023-04-18T20:19:35.271Z,100483.19
2023-04-18T20:22:40.377Z,100488.88
2023-04-18T20:25:43.752Z,100477.69
2023-04-18T20:28:47.166Z,100469.06
2023-04-18T20:31:51.023Z,100458.19
2023-04-18T20:34:54.815Z,100452.94
2023-04-18T20:37:58.362Z,100456.41
2023-04-18T20:41:02.176Z,100462.50
2023-04-18T20:44:10.210Z,100471.22
2023-04-18T20:47:15.226Z,100468.50
2023-04-18T20:50:20.551Z,100476.63
2023-04-18T20:53:28.955Z,100483.34
2023-04-18T20:56:33.826Z,100477.72
2023-04-18T20:59:37.108Z,100472.16
2023-04-18T21:02:41.807Z,100480.91
2023-04-18T21:05:45.706Z,100487.25
2023-04-18T21:08:48.961Z,100499.22
2023-04-18T21:11:52.273Z,100505.06
2023-04-18T21:14:55.353Z,100503.41
2023-04-18T21:17:58.296Z,100499.69
2023-04-18T21:21:01.237Z,100504.34
2023-04-18T21:24:05.838Z,100498.00
2023-04-18T21:27:09.018Z,100504.16
2023-04-18T21:30:12.275Z,100510.44
2023-04-18T21:33:16.806Z,100507.72
2023-04-18T21:36:20.181Z,100518.41
2023-04-18T21:39:23.266Z,100512.66
2023-04-18T21:42:27.003Z,100538.78
2023-04-18T21:45:30.171Z,100536.94
2023-04-18T21:48:33.468Z,100549.47
2023-04-18T21:51:36.819Z,100555.09
2023-04-18T21:54:40.332Z,100557.31
2023-04-18T21:57:43.326Z,100556.56
2023-04-18T22:00:46.660Z,100554.66
2023-04-18T22:03:49.898Z,100550.94
2023-04-18T22:06:57.091Z,100552.16
2023-04-18T22:10:00.497Z,100544.06
2023-04-18T22:13:04.919Z,100549.88
2023-04-18T22:16:09.514Z,100545.97
2023-04-18T22:19:14.262Z,100553.38
2023-04-18T22:22:17.409Z,100556.28
2023-04-18T22:25:20.426Z,100547.84
2023-04-18T22:28:23.769Z,100549.78
2023-04-18T22:31:27.405Z,100548.50
2023-04-18T22:34:30.648Z,100545.97
2023-04-18T22:37:33.893Z,100543.06
2023-04-18T22:40:37.183Z,100547.03
2023-04-18T22:43:40.464Z,100545.38
2023-04-18T22:46:43.705Z,100547.19
2023-04-18T22:49:47.229Z,100533.38
2023-04-18T22:52:51.097Z,100529.41
2023-04-18T22:55:54.589Z,100535.69
2023-04-18T22:58:57.867Z,100523.28
2023-04-18T23:02:01.268Z,100521.44
2023-04-18T23:05:06.954Z,100516.19
2023-04-18T23:08:11.963Z,100523.78
2023-04-18T23:11:16.037Z,100518.13
2023-04-18T23:14:19.586Z,100509.16
2023-04-18T23:17:22.646Z,100496.34
2023-04-18T23:20:25.717Z,100491.59
2023-04-18T23:23:29.042Z,100498.00
2023-04-18T23:26:32.819Z,100492.97
2023-04-18T23:29:39.311Z,100488.31
2023-04-18T23:32:42.391Z,100482.69
2023-04-18T23:35:45.775Z,100481.69
2023-04-18T23:38:49.099Z,100479.44
2023-04-18T23:41:52.282Z,100479.09
2023-04-18T23:44:55.211Z,100474.72
2023-04-18T23:47:58.509Z,100465.69
2023-04-18T23:51:01.825Z,100463.72
2023-04-18T23:54:05.668Z,100461.91
2023-04-18T23:57:08.924Z,100460.41
